Карточка аэропорта UAII

Внимание!
Информация на этой странице в стадии наполнения.
Если вы не увидели какой-то информации, или заметили неточность - пожалуйста сообщите нам!
Спасибо!
Команда RU-STAFF
Название аэропортаШымкент
Название аэропорта (англ.)Shymkent
Превышение1389 ft. (423.4 m.)
Координаты42°21.348', 69°28.734'
Высота перехода5000
Эшелон переходаFL70
Коды ответчика3430-3437, 3530-3537
Зона ОрВДШымкент РПИ (UAII)
Данные METARUAII 241400Z 07005MPS 040V100 CAVOK 25/M05 Q1015 R10/0///70 NOSIG RMK QFE726/0968
Проноз погоды (TAF)UAII 241100Z 2412/2512 36003G08MPS 7000 NSC TX30/2510Z TN11/2501Z TEMPO 2412/2418 05009G14MPS TEMPO 2418/2504 12003G08MPS 4000 FU TEMPO 2504/2512 28003G08MPS
NOTAMshow/hide NOTAM
AWOS   TABLE

Информация о ВПП

ВПП Длина ВПП (м.) Покрытие Курс ВПП Частота ILS
103300Железобетон106111.7
283300Железобетон286110.3

Диспетчерские позиции




Спутниковое изображение